createdAt,value
2023-03-04T00:00:31.522Z,7.65
2023-03-04T00:02:58.670Z,8.20
2023-03-04T00:05:25.832Z,8.55
2023-03-04T00:07:52.960Z,9.50
2023-03-04T00:10:20.058Z,10.35
2023-03-04T00:12:47.146Z,10.18
2023-03-04T00:15:14.235Z,10.55
2023-03-04T00:17:41.365Z,10.40
2023-03-04T00:20:09.336Z,8.77
2023-03-04T00:22:36.475Z,9.98
2023-03-04T00:25:03.778Z,10.45
2023-03-04T00:27:30.840Z,11.10
2023-03-04T00:29:57.930Z,10.98
2023-03-04T00:32:25.207Z,9.85
2023-03-04T00:34:52.358Z,9.15
2023-03-04T00:37:19.565Z,9.50
2023-03-04T00:39:46.747Z,10.70
2023-03-04T00:42:13.902Z,11.85
2023-03-04T00:44:41.097Z,12.70
2023-03-04T00:47:08.251Z,11.30
2023-03-04T00:49:35.460Z,12.45
2023-03-04T00:52:02.775Z,13.00
2023-03-04T00:54:29.959Z,11.93
2023-03-04T00:56:57.046Z,12.98
2023-03-04T00:59:24.162Z,12.13
2023-03-04T01:01:51.208Z,11.85
2023-03-04T01:04:18.325Z,12.43
2023-03-04T01:06:45.439Z,11.52
2023-03-04T01:09:12.646Z,12.20
2023-03-04T01:11:39.798Z,11.85
2023-03-04T01:14:07.096Z,12.57
2023-03-04T01:16:34.836Z,10.45
2023-03-04T01:19:02.001Z,10.65
2023-03-04T01:21:30.773Z,10.32
2023-03-04T01:23:57.908Z,11.30
2023-03-04T01:26:25.036Z,11.18
2023-03-04T01:28:53.463Z,9.60
2023-03-04T01:31:20.558Z,8.57
2023-03-04T01:33:47.670Z,9.20
2023-03-04T01:36:14.896Z,9.70
2023-03-04T01:38:42.049Z,9.27
2023-03-04T01:41:09.168Z,10.90
2023-03-04T01:43:37.953Z,10.27
2023-03-04T01:46:06.325Z,9.75
2023-03-04T01:48:37.508Z,10.02
2023-03-04T01:51:06.495Z,10.60
2023-03-04T01:53:34.025Z,10.20
2023-03-04T01:56:11.144Z,11.40
2023-03-04T01:58:38.357Z,10.52
2023-03-04T02:01:05.428Z,10.88
2023-03-04T02:03:32.730Z,10.02
2023-03-04T02:05:59.950Z,10.25
2023-03-04T02:08:27.212Z,11.77
2023-03-04T02:10:55.089Z,11.18
2023-03-04T02:13:22.260Z,11.35
2023-03-04T02:15:49.729Z,9.48
2023-03-04T02:18:20.461Z,11.35
2023-03-04T02:21:05.923Z,11.63
2023-03-04T02:23:45.006Z,12.15
2023-03-04T02:26:21.223Z,11.57
2023-03-04T02:28:53.777Z,11.75
2023-03-04T02:31:28.875Z,9.50
2023-03-04T02:33:59.437Z,10.95
2023-03-04T02:36:28.645Z,11.40
2023-03-04T02:39:01.348Z,13.02
2023-03-04T02:41:31.035Z,13.02
2023-03-04T02:43:59.269Z,12.90
2023-03-04T02:46:27.788Z,11.70
2023-03-04T02:48:55.419Z,13.02
2023-03-04T02:51:22.562Z,11.82
2023-03-04T02:53:49.654Z,13.40
2023-03-04T02:56:17.062Z,14.48
2023-03-04T02:58:44.254Z,12.45
2023-03-04T03:01:12.107Z,13.38
2023-03-04T03:03:39.330Z,13.02
2023-03-04T03:06:06.829Z,13.35
2023-03-04T03:08:34.005Z,15.00
2023-03-04T03:11:02.311Z,15.40
2023-03-04T03:13:31.717Z,13.48
2023-03-04T03:15:58.861Z,13.38
2023-03-04T03:18:26.126Z,12.77
2023-03-04T03:20:53.173Z,13.32
2023-03-04T03:23:21.112Z,15.95
2023-03-04T03:25:48.233Z,15.05
2023-03-04T03:28:15.327Z,14.90
2023-03-04T03:30:42.450Z,14.40
2023-03-04T03:33:09.636Z,14.88
2023-03-04T03:35:38.164Z,14.32
2023-03-04T03:38:05.313Z,15.60
2023-03-04T03:40:32.819Z,14.48
2023-03-04T03:43:00.024Z,14.07
2023-03-04T03:45:27.076Z,14.05
2023-03-04T03:47:54.185Z,13.82
2023-03-04T03:50:21.447Z,14.38
2023-03-04T03:52:48.638Z,15.60
2023-03-04T03:55:15.754Z,16.40
2023-03-04T03:57:42.878Z,16.35
2023-03-04T04:00:10.836Z,14.25
2023-03-04T04:02:41.273Z,16.48
2023-03-04T04:05:09.482Z,15.82
2023-03-04T04:07:37.555Z,15.98
2023-03-04T04:10:05.993Z,13.48
2023-03-04T04:12:33.424Z,13.50
2023-03-04T04:15:00.725Z,14.07
2023-03-04T04:17:28.182Z,14.35
2023-03-04T04:19:55.289Z,15.27
2023-03-04T04:22:22.372Z,15.43
2023-03-04T04:24:49.440Z,14.85
2023-03-04T04:27:16.521Z,14.27
2023-03-04T04:29:43.628Z,15.02
2023-03-04T04:32:13.301Z,15.85
2023-03-04T04:34:40.484Z,15.05
2023-03-04T04:37:07.744Z,14.95
2023-03-04T04:39:34.925Z,15.55
2023-03-04T04:42:02.145Z,14.60
2023-03-04T04:44:29.316Z,15.75
2023-03-04T04:46:56.355Z,13.82
2023-03-04T04:49:23.419Z,16.33
2023-03-04T04:51:50.520Z,16.50
2023-03-04T04:54:17.684Z,16.25
2023-03-04T04:56:44.749Z,16.10
2023-03-04T04:59:11.873Z,16.15
2023-03-04T05:01:39.146Z,15.70
2023-03-04T05:04:06.338Z,15.02
2023-03-04T05:06:33.515Z,16.80
2023-03-04T05:09:00.784Z,16.95
2023-03-04T05:11:28.013Z,17.67
2023-03-04T05:13:55.069Z,17.08
2023-03-04T05:16:22.206Z,16.90
2023-03-04T05:18:49.304Z,18.05
2023-03-04T05:21:16.432Z,16.70
2023-03-04T05:23:44.452Z,17.65
2023-03-04T05:26:14.812Z,16.98
2023-03-04T05:28:42.132Z,17.95
2023-03-04T05:31:09.555Z,17.98
2023-03-04T05:33:36.794Z,18.77
2023-03-04T05:36:06.141Z,18.33
2023-03-04T05:38:33.552Z,17.70
2023-03-04T05:41:03.960Z,19.38
2023-03-04T05:43:32.584Z,18.77
2023-03-04T05:45:59.783Z,20.95
2023-03-04T05:48:29.149Z,19.83
2023-03-04T05:50:58.256Z,19.73
2023-03-04T05:53:25.586Z,20.02
2023-03-04T05:55:53.192Z,19.83
2023-03-04T05:58:21.649Z,21.35
2023-03-04T06:00:48.794Z,19.52
2023-03-04T06:03:20.580Z,20.73
2023-03-04T06:05:48.522Z,19.90
2023-03-04T06:08:15.788Z,20.35
2023-03-04T06:10:43.008Z,20.85
2023-03-04T06:13:10.762Z,20.98
2023-03-04T06:15:39.667Z,19.75
2023-03-04T06:18:08.230Z,19.50
2023-03-04T06:20:35.451Z,20.63
2023-03-04T06:23:02.964Z,20.65
2023-03-04T06:25:30.428Z,20.15
2023-03-04T06:27:57.540Z,20.23
2023-03-04T06:30:24.864Z,22.67
2023-03-04T06:32:51.931Z,20.83
2023-03-04T06:35:19.772Z,20.23
2023-03-04T06:37:47.094Z,21.38
2023-03-04T06:40:14.534Z,21.23
2023-03-04T06:42:41.777Z,21.63
2023-03-04T06:45:09.399Z,21.35
2023-03-04T06:47:36.549Z,18.48
2023-03-04T06:50:04.821Z,20.10
2023-03-04T06:52:32.023Z,19.40
2023-03-04T06:54:59.183Z,20.75
2023-03-04T06:57:26.399Z,19.40
2023-03-04T06:59:53.478Z,18.75
2023-03-04T07:02:20.586Z,17.30
2023-03-04T07:04:47.739Z,17.98
2023-03-04T07:07:14.893Z,17.70
2023-03-04T07:09:42.064Z,17.98
2023-03-04T07:12:09.216Z,19.35
2023-03-04T07:14:36.322Z,18.48
2023-03-04T07:17:03.758Z,17.17
2023-03-04T07:19:30.964Z,17.85
2023-03-04T07:21:58.223Z,17.20
2023-03-04T07:24:25.359Z,17.83
2023-03-04T07:26:52.920Z,16.08
2023-03-04T07:33:42.683Z,15.23
2023-03-04T07:36:09.779Z,15.55
2023-03-04T07:38:37.058Z,17.13
2023-03-04T07:41:04.332Z,15.82
2023-03-04T07:43:31.462Z,15.32
2023-03-04T07:46:02.195Z,14.05
2023-03-04T07:48:29.742Z,16.63
2023-03-04T07:51:24.332Z,16.08
2023-03-04T07:54:01.433Z,15.07
2023-03-04T07:56:31.488Z,15.52
2023-03-04T07:58:59.791Z,15.25
2023-03-04T08:01:36.033Z,15.43
2023-03-04T08:04:04.860Z,16.13
2023-03-04T08:06:32.491Z,15.00
2023-03-04T08:09:04.182Z,14.90
2023-03-04T08:11:31.718Z,15.57
2023-03-04T08:13:59.397Z,15.00
2023-03-04T08:16:27.135Z,16.77
2023-03-04T08:18:57.106Z,17.77
2023-03-04T08:21:26.737Z,17.42
2023-03-04T08:23:54.651Z,17.13
2023-03-04T08:26:28.788Z,16.92
2023-03-04T08:28:58.289Z,16.58
2023-03-04T08:31:25.803Z,17.30
2023-03-04T08:33:53.146Z,18.42
2023-03-04T08:36:20.919Z,17.23
2023-03-04T08:38:48.054Z,16.83
2023-03-04T08:41:15.728Z,17.13
2023-03-04T08:43:43.965Z,16.25
2023-03-04T08:46:11.187Z,15.65
2023-03-04T08:48:39.027Z,16.42
2023-03-04T08:51:14.150Z,14.27
2023-03-04T08:53:41.827Z,14.32
2023-03-04T08:56:10.226Z,13.98
2023-03-04T08:58:37.371Z,14.07
2023-03-04T09:01:05.250Z,14.23
2023-03-04T09:03:32.410Z,13.88
2023-03-04T09:06:01.993Z,14.20
2023-03-04T09:08:29.098Z,12.98
2023-03-04T09:10:56.290Z,13.30
2023-03-04T09:13:26.289Z,11.95
2023-03-04T09:15:53.805Z,13.73
2023-03-04T09:18:22.723Z,12.68
2023-03-04T09:20:50.455Z,11.40
2023-03-04T09:23:18.223Z,13.13
2023-03-04T09:25:47.565Z,14.45
2023-03-04T09:28:15.594Z,14.63
2023-03-04T09:30:43.391Z,12.80
2023-03-04T09:33:10.771Z,13.07
2023-03-04T09:35:38.105Z,12.45
2023-03-04T09:38:05.324Z,12.13
2023-03-04T09:40:44.988Z,10.02
2023-03-04T09:43:25.176Z,10.02
2023-03-04T10:18:20.604Z,6.17
2023-03-04T10:20:59.475Z,5.95
2023-03-04T10:23:29.496Z,6.47
2023-03-04T10:25:56.843Z,5.25
2023-03-04T10:28:29.761Z,5.57
2023-03-04T10:31:00.786Z,5.30
2023-03-04T10:33:31.186Z,5.40
2023-03-04T10:36:29.975Z,5.30
2023-03-04T10:39:12.041Z,5.53
2023-03-04T10:41:44.634Z,6.40
2023-03-04T10:44:16.578Z,8.50
2023-03-04T10:46:49.181Z,9.95
2023-03-04T10:49:19.121Z,11.63
2023-03-04T10:51:52.874Z,14.00
2023-03-04T10:54:35.438Z,13.82
2023-03-04T10:57:06.502Z,12.35
2023-03-04T10:59:53.715Z,13.15
2023-03-04T11:02:31.209Z,13.40
2023-03-04T11:05:14.948Z,14.02
2023-03-04T11:07:56.236Z,11.35
2023-03-04T11:10:40.609Z,11.93
2023-03-04T11:13:16.344Z,11.50
2023-03-04T11:15:59.296Z,12.10
2023-03-04T11:18:52.891Z,12.95
2023-03-04T11:21:26.181Z,11.30
2023-03-04T11:23:53.285Z,13.45
2023-03-04T11:26:26.724Z,11.85
2023-03-04T11:29:10.577Z,13.15
2023-03-04T11:31:46.827Z,12.75
2023-03-04T11:34:25.751Z,12.70
2023-03-04T11:36:59.782Z,11.75
2023-03-04T11:39:52.180Z,11.63
2023-03-04T11:43:03.481Z,11.50
2023-03-04T11:45:39.317Z,11.10
2023-03-04T11:50:54.009Z,11.02
2023-03-04T11:53:34.425Z,11.30
2023-03-04T11:56:18.426Z,10.77
2023-03-04T11:59:00.449Z,11.20
2023-03-04T12:01:33.747Z,11.70
2023-03-04T12:04:47.095Z,11.27
2023-03-04T12:07:17.314Z,12.45
2023-03-04T12:10:22.757Z,11.07
2023-03-04T12:13:06.584Z,12.05
2023-03-04T12:15:42.799Z,11.95
2023-03-04T12:18:44.151Z,11.48
2023-03-04T12:21:32.778Z,11.05
2023-03-04T12:24:13.228Z,11.18
2023-03-04T12:27:03.086Z,10.68
2023-03-04T12:29:55.939Z,11.13
2023-03-04T12:32:37.178Z,8.98
2023-03-04T12:35:04.157Z,9.23
2023-03-04T12:37:54.200Z,10.18
2023-03-04T12:40:49.817Z,10.05
2023-03-04T12:43:41.489Z,10.23
2023-03-04T12:46:17.114Z,8.55
2023-03-04T12:49:17.197Z,9.27
2023-03-04T12:52:15.165Z,10.13
2023-03-04T12:54:58.197Z,9.93
2023-03-04T12:57:28.039Z,8.80
2023-03-04T13:00:13.224Z,9.13
2023-03-04T13:02:48.180Z,8.63
2023-03-04T13:05:27.332Z,9.02
2023-03-04T13:08:00.053Z,8.73
2023-03-04T13:10:27.258Z,9.25
2023-03-04T13:12:57.391Z,9.88
2023-03-04T13:15:24.830Z,9.43
2023-03-04T13:17:55.144Z,9.45
2023-03-04T13:21:05.275Z,8.23
2023-03-04T13:23:33.881Z,8.82
2023-03-04T13:26:03.609Z,9.65
2023-03-04T13:28:33.337Z,11.23
2023-03-04T13:31:18.729Z,10.15
2023-03-04T13:33:49.586Z,8.95
2023-03-04T13:36:52.275Z,8.80
2023-03-04T13:39:19.328Z,8.88
2023-03-04T13:41:48.777Z,8.85
2023-03-04T13:44:38.599Z,8.15
2023-03-04T13:47:20.766Z,8.02
2023-03-04T13:49:48.151Z,8.20
2023-03-04T13:52:33.545Z,8.75
2023-03-04T13:55:34.480Z,8.30
2023-03-04T13:58:08.719Z,9.98
2023-03-04T14:00:36.792Z,9.35
2023-03-04T14:03:15.303Z,9.57
2023-03-04T14:05:42.525Z,9.05
2023-03-04T14:08:20.563Z,8.75
2023-03-04T14:10:56.365Z,8.70
2023-03-04T14:13:23.620Z,8.68
2023-03-04T14:15:58.668Z,8.95
2023-03-04T14:18:26.084Z,8.95
2023-03-04T14:20:59.055Z,8.48
2023-03-04T14:23:35.610Z,9.32
2023-03-04T14:28:44.150Z,8.82
2023-03-04T14:31:20.785Z,8.33
2023-03-04T14:33:51.861Z,9.88
2023-03-04T14:36:23.662Z,8.23
2023-03-04T14:38:58.045Z,9.45
2023-03-04T14:41:35.297Z,9.02
2023-03-04T14:44:21.232Z,8.73
2023-03-04T14:47:07.668Z,8.80
2023-03-04T14:52:07.134Z,9.05
2023-03-04T14:54:37.141Z,8.95
2023-03-04T14:57:21.203Z,9.48
2023-03-04T14:59:48.539Z,9.27
2023-03-04T15:02:24.863Z,10.00
2023-03-04T15:04:52.018Z,10.20
2023-03-04T15:07:35.017Z,10.07
2023-03-04T15:10:09.595Z,10.35
2023-03-04T15:12:40.648Z,9.15
2023-03-04T15:15:34.708Z,9.52
2023-03-04T15:18:21.978Z,10.10
2023-03-04T15:20:58.294Z,11.07
2023-03-04T15:23:26.791Z,12.63
2023-03-04T15:26:02.485Z,12.55
2023-03-04T15:28:34.954Z,13.27
2023-03-04T15:31:02.651Z,14.55
2023-03-04T15:33:29.906Z,13.68
2023-03-04T15:36:02.482Z,13.13
2023-03-04T15:38:30.551Z,13.52
2023-03-04T15:40:59.770Z,14.15
2023-03-04T15:43:27.120Z,13.38
2023-03-04T15:45:54.397Z,14.77
2023-03-04T15:48:21.745Z,13.68
2023-03-04T15:50:56.413Z,15.10
2023-03-04T15:53:37.792Z,14.63
2023-03-04T15:56:07.936Z,14.68
2023-03-04T15:58:35.460Z,15.35
2023-03-04T16:01:03.153Z,15.48
2023-03-04T16:03:30.541Z,15.30
2023-03-04T16:05:58.280Z,17.02
2023-03-04T16:08:25.824Z,17.05
2023-03-04T16:10:53.564Z,16.05
2023-03-04T16:13:24.345Z,15.05
2023-03-04T16:15:51.806Z,15.75
2023-03-04T16:18:19.038Z,15.18
2023-03-04T16:20:49.536Z,14.45
2023-03-04T16:23:23.350Z,14.88
2023-03-04T16:25:55.612Z,14.57
2023-03-04T16:28:23.305Z,14.57
2023-03-04T16:30:50.680Z,14.10
2023-03-04T16:33:17.944Z,13.60
2023-03-04T16:35:46.215Z,11.98
2023-03-04T16:38:26.168Z,13.35
2023-03-04T16:40:54.658Z,12.07
2023-03-04T16:43:22.784Z,11.48
2023-03-04T16:45:50.333Z,9.95
2023-03-04T16:48:17.908Z,10.63
2023-03-04T16:50:45.354Z,9.82
2023-03-04T16:53:31.217Z,9.45
2023-03-04T16:56:01.690Z,8.95
2023-03-04T16:58:28.769Z,8.20
2023-03-04T17:00:55.905Z,7.78
2023-03-04T17:03:23.172Z,8.02
2023-03-04T17:05:50.521Z,8.45
2023-03-04T17:08:17.646Z,7.55
2023-03-04T17:10:44.834Z,7.68
2023-03-04T17:13:12.108Z,8.02
2023-03-04T17:15:39.147Z,9.52
2023-03-04T17:18:06.683Z,8.95
2023-03-04T17:20:33.808Z,9.98
2023-03-04T17:23:01.183Z,9.93
2023-03-04T17:25:28.312Z,9.50
2023-03-04T17:27:55.403Z,10.48
2023-03-04T17:30:22.641Z,11.43
2023-03-04T17:32:49.700Z,11.90
2023-03-04T17:35:17.080Z,12.25
2023-03-04T17:37:44.327Z,11.48
2023-03-04T17:40:14.366Z,10.25
2023-03-04T17:42:43.582Z,10.15
2023-03-04T17:45:11.416Z,8.82
2023-03-04T17:47:39.383Z,8.10
2023-03-04T17:50:08.067Z,8.05
2023-03-04T17:52:35.165Z,8.45
2023-03-04T17:55:02.222Z,8.20
2023-03-04T17:57:29.445Z,9.00
2023-03-04T17:59:57.475Z,8.57
2023-03-04T18:02:25.224Z,8.13
2023-03-04T18:04:52.384Z,8.45
2023-03-04T18:07:19.862Z,8.75
2023-03-04T18:09:47.473Z,7.93
2023-03-04T18:12:15.284Z,7.97
2023-03-04T18:14:42.504Z,7.95
2023-03-04T18:17:09.779Z,8.18
2023-03-04T18:19:36.900Z,8.48
2023-03-04T18:22:04.324Z,8.18
2023-03-04T18:24:31.781Z,7.90
2023-03-04T18:26:58.890Z,8.27
2023-03-04T18:29:26.200Z,8.98
2023-03-04T18:31:53.425Z,9.02
2023-03-04T18:34:20.505Z,9.15
2023-03-04T18:36:48.270Z,9.73
2023-03-04T18:39:17.633Z,9.10
2023-03-04T18:41:45.212Z,8.75
2023-03-04T18:44:12.353Z,8.93
2023-03-04T18:46:52.324Z,8.98
2023-03-04T18:49:21.065Z,9.38
2023-03-04T18:51:48.155Z,9.48
2023-03-04T18:54:15.294Z,9.32
2023-03-04T18:56:51.340Z,9.13
2023-03-04T18:59:24.045Z,9.20
2023-03-04T19:01:54.447Z,8.48
2023-03-04T19:04:25.350Z,7.82
2023-03-04T19:06:52.427Z,8.38
2023-03-04T19:09:20.014Z,9.13
2023-03-04T19:11:47.430Z,10.02
2023-03-04T19:14:14.557Z,10.35
2023-03-04T19:16:41.692Z,9.80
2023-03-04T19:19:08.832Z,10.98
2023-03-04T19:21:39.426Z,10.95
2023-03-04T19:24:07.044Z,11.55
2023-03-04T19:26:34.502Z,11.55
2023-03-04T19:29:01.676Z,12.60
2023-03-04T19:31:28.792Z,11.65
2023-03-04T19:33:55.895Z,12.05
2023-03-04T19:36:23.052Z,12.48
2023-03-04T19:38:50.251Z,12.98
2023-03-04T19:41:18.165Z,13.50
2023-03-04T19:43:46.339Z,13.50
2023-03-04T19:46:14.117Z,11.07
2023-03-04T19:48:41.450Z,11.00
2023-03-04T19:51:20.359Z,12.27
2023-03-04T19:53:47.699Z,11.80
2023-03-04T19:56:15.146Z,11.15
2023-03-04T19:58:42.268Z,10.60
2023-03-04T20:01:30.966Z,12.30
2023-03-04T20:04:00.515Z,11.88
2023-03-04T20:06:28.243Z,10.95
2023-03-04T20:09:00.378Z,12.15
2023-03-04T20:11:28.579Z,12.32
2023-03-04T20:13:58.454Z,12.32
2023-03-04T20:16:26.278Z,12.27
2023-03-04T20:18:53.827Z,13.50
2023-03-04T20:21:21.296Z,12.73
2023-03-04T20:23:48.783Z,14.15
2023-03-04T20:26:15.886Z,14.50
2023-03-04T20:28:50.905Z,15.55
2023-03-04T20:31:31.074Z,15.65
2023-03-04T20:33:59.939Z,16.05
2023-03-04T20:36:29.106Z,17.45
2023-03-04T20:39:02.371Z,18.40
2023-03-04T20:41:32.290Z,16.85
2023-03-04T20:43:59.338Z,20.10
2023-03-04T20:46:29.307Z,20.55
2023-03-04T20:49:02.434Z,18.65
2023-03-04T20:51:31.532Z,19.17
2023-03-04T20:53:58.885Z,17.63
2023-03-04T20:56:26.886Z,17.70
2023-03-04T20:58:55.648Z,17.17
2023-03-04T21:01:24.325Z,16.63
2023-03-04T21:03:52.189Z,16.30
2023-03-04T21:06:19.480Z,14.63
2023-03-04T21:08:46.809Z,15.05
2023-03-04T21:11:15.313Z,14.45
2023-03-04T21:13:43.456Z,15.05
2023-03-04T21:16:13.387Z,13.73
2023-03-04T21:18:41.755Z,13.00
2023-03-04T21:21:15.627Z,13.77
2023-03-04T21:23:42.771Z,12.88
2023-03-04T21:26:09.931Z,12.07
2023-03-04T21:28:37.254Z,13.18
2023-03-04T21:31:04.920Z,13.75
2023-03-04T21:33:36.624Z,11.52
2023-03-04T21:36:04.213Z,11.32
2023-03-04T21:38:31.384Z,11.98
2023-03-04T21:40:58.491Z,13.30
2023-03-04T21:43:25.703Z,12.85
2023-03-04T21:45:57.518Z,11.38
2023-03-04T21:48:25.876Z,11.48
2023-03-04T21:50:54.371Z,10.73
2023-03-04T21:53:23.698Z,10.95
2023-03-04T21:55:53.290Z,10.43
2023-03-04T21:58:20.610Z,10.75
2023-03-04T22:00:49.847Z,11.40
2023-03-04T22:03:16.937Z,10.98
2023-03-04T22:05:45.100Z,9.27
2023-03-04T22:08:13.486Z,9.65
2023-03-04T22:10:41.574Z,10.88
2023-03-04T22:13:10.714Z,10.73
2023-03-04T22:15:39.055Z,10.15
2023-03-04T22:18:07.878Z,9.20
2023-03-04T22:20:36.722Z,8.90
2023-03-04T22:23:04.076Z,7.78
2023-03-04T22:25:34.401Z,6.82
2023-03-04T22:28:01.629Z,7.78
2023-03-04T22:30:28.664Z,6.72
2023-03-04T22:32:55.849Z,7.22
2023-03-04T22:35:23.050Z,7.35
2023-03-04T22:37:50.252Z,7.05
2023-03-04T22:40:17.560Z,6.38
2023-03-04T22:42:46.819Z,6.80
2023-03-04T22:45:16.237Z,7.00
2023-03-04T22:47:51.067Z,6.63
2023-03-04T22:50:20.157Z,6.32
2023-03-04T22:52:48.669Z,7.10
2023-03-04T22:55:18.174Z,7.07
2023-03-04T22:57:45.612Z,7.72
2023-03-04T23:00:19.553Z,7.38
2023-03-04T23:02:46.687Z,7.05
2023-03-04T23:05:14.125Z,6.93
2023-03-04T23:07:41.578Z,6.85
2023-03-04T23:10:13.713Z,6.00
2023-03-04T23:12:41.748Z,6.70
2023-03-04T23:15:09.745Z,5.57
2023-03-04T23:17:37.018Z,5.40
2023-03-04T23:20:04.748Z,5.32
2023-03-04T23:22:33.455Z,5.45
2023-03-04T23:25:00.529Z,5.50
2023-03-04T23:27:27.895Z,4.88
2023-03-04T23:29:55.021Z,5.57
2023-03-04T23:32:22.164Z,4.97
2023-03-04T23:34:53.311Z,4.65
2023-03-04T23:37:22.161Z,5.00
2023-03-04T23:39:49.946Z,5.18
2023-03-04T23:42:17.382Z,5.55
2023-03-04T23:44:44.707Z,4.93
2023-03-04T23:47:11.762Z,5.53
2023-03-04T23:49:38.964Z,5.80
2023-03-04T23:52:06.404Z,5.82
2023-03-04T23:54:33.621Z,6.45
2023-03-04T23:57:01.114Z,6.10
2023-03-04T23:59:29.023Z,6.03
